sensor_id;sensor_type;location;lat;lon;timestamp;temperature;humidity
11619;DHT22;5865;48.776;9.280;2023-07-31T00:01:45;12.90;99.90
11619;DHT22;5865;48.776;9.280;2023-07-31T00:04:13;12.80;99.90
11619;DHT22;5865;48.776;9.280;2023-07-31T00:06:40;12.60;99.90
11619;DHT22;5865;48.776;9.280;2023-07-31T00:09:07;12.60;99.90
11619;DHT22;5865;48.776;9.280;2023-07-31T00:11:34;12.60;99.90
11619;DHT22;5865;48.776;9.280;2023-07-31T00:14:00;12.50;99.90
11619;DHT22;5865;48.776;9.280;2023-07-31T00:16:29;12.50;99.90
11619;DHT22;5865;48.776;9.280;2023-07-31T00:18:56;12.50;99.90
11619;DHT22;5865;48.776;9.280;2023-07-31T00:21:23;12.50;99.90
11619;DHT22;5865;48.776;9.280;2023-07-31T00:23:49;12.40;99.90
11619;DHT22;5865;48.776;9.280;2023-07-31T00:26:16;12.30;99.90
11619;DHT22;5865;48.776;9.280;2023-07-31T00:28:43;12.30;99.90
11619;DHT22;5865;48.776;9.280;2023-07-31T00:31:10;12.30;99.90
11619;DHT22;5865;48.776;9.280;2023-07-31T00:33:38;12.20;99.90
11619;DHT22;5865;48.776;9.280;2023-07-31T00:36:05;12.20;99.90
11619;DHT22;5865;48.776;9.280;2023-07-31T00:40:59;12.10;99.90
11619;DHT22;5865;48.776;9.280;2023-07-31T00:43:26;12.10;99.90
11619;DHT22;5865;48.776;9.280;2023-07-31T00:45:53;12.00;99.90
11619;DHT22;5865;48.776;9.280;2023-07-31T00:48:20;12.00;99.90
11619;DHT22;5865;48.776;9.280;2023-07-31T00:50:49;12.00;99.90
11619;DHT22;5865;48.776;9.280;2023-07-31T00:53:16;11.90;99.90
11619;DHT22;5865;48.776;9.280;2023-07-31T00:55:44;11.90;99.90
11619;DHT22;5865;48.776;9.280;2023-07-31T01:00:38;11.80;99.90
11619;DHT22;5865;48.776;9.280;2023-07-31T01:05:39;11.90;99.90
11619;DHT22;5865;48.776;9.280;2023-07-31T01:08:15;11.90;99.90
11619;DHT22;5865;48.776;9.280;2023-07-31T01:10:50;11.80;99.90
11619;DHT22;5865;48.776;9.280;2023-07-31T01:13:19;11.80;99.90
11619;DHT22;5865;48.776;9.280;2023-07-31T01:15:46;11.80;99.90
11619;DHT22;5865;48.776;9.280;2023-07-31T01:18:13;11.80;99.90
11619;DHT22;5865;48.776;9.280;2023-07-31T01:20:42;11.80;99.90
11619;DHT22;5865;48.776;9.280;2023-07-31T01:23:40;11.80;99.90
11619;DHT22;5865;48.776;9.280;2023-07-31T01:26:16;11.80;99.90
11619;DHT22;5865;48.776;9.280;2023-07-31T01:28:53;11.80;99.90
11619;DHT22;5865;48.776;9.280;2023-07-31T01:31:24;11.70;99.90
11619;DHT22;5865;48.776;9.280;2023-07-31T01:33:56;11.70;99.90
11619;DHT22;5865;48.776;9.280;2023-07-31T01:36:23;11.70;99.90
11619;DHT22;5865;48.776;9.280;2023-07-31T01:41:19;11.80;99.90
11619;DHT22;5865;48.776;9.280;2023-07-31T01:43:46;11.80;99.90
11619;DHT22;5865;48.776;9.280;2023-07-31T01:46:13;11.80;99.90
11619;DHT22;5865;48.776;9.280;2023-07-31T01:48:40;11.80;99.90
11619;DHT22;5865;48.776;9.280;2023-07-31T01:51:07;11.80;99.90
11619;DHT22;5865;48.776;9.280;2023-07-31T01:53:35;11.80;99.90
11619;DHT22;5865;48.776;9.280;2023-07-31T01:56:02;11.80;99.90
11619;DHT22;5865;48.776;9.280;2023-07-31T01:58:31;11.80;99.90
11619;DHT22;5865;48.776;9.280;2023-07-31T02:00:58;11.90;99.90
11619;DHT22;5865;48.776;9.280;2023-07-31T02:03:26;11.80;99.90
11619;DHT22;5865;48.776;9.280;2023-07-31T02:05:54;11.90;99.90
11619;DHT22;5865;48.776;9.280;2023-07-31T02:08:24;11.80;99.90
11619;DHT22;5865;48.776;9.280;2023-07-31T02:13:18;11.90;99.90
11619;DHT22;5865;48.776;9.280;2023-07-31T02:15:47;11.90;99.90
11619;DHT22;5865;48.776;9.280;2023-07-31T02:18:14;11.90;99.90
11619;DHT22;5865;48.776;9.280;2023-07-31T02:20:41;11.90;99.90
11619;DHT22;5865;48.776;9.280;2023-07-31T02:23:08;11.80;99.90
11619;DHT22;5865;48.776;9.280;2023-07-31T02:25:35;11.90;99.90
11619;DHT22;5865;48.776;9.280;2023-07-31T02:28:01;11.90;99.90
11619;DHT22;5865;48.776;9.280;2023-07-31T02:30:28;11.80;99.90
11619;DHT22;5865;48.776;9.280;2023-07-31T02:32:57;11.90;99.90
11619;DHT22;5865;48.776;9.280;2023-07-31T02:35:24;11.90;99.90
11619;DHT22;5865;48.776;9.280;2023-07-31T02:37:50;12.10;99.90
11619;DHT22;5865;48.776;9.280;2023-07-31T02:40:18;12.00;99.90
11619;DHT22;5865;48.776;9.280;2023-07-31T02:45:13;12.20;99.90
11619;DHT22;5865;48.776;9.280;2023-07-31T02:47:41;12.20;99.90
11619;DHT22;5865;48.776;9.280;2023-07-31T02:50:10;12.20;99.90
11619;DHT22;5865;48.776;9.280;2023-07-31T02:52:36;12.30;99.90
11619;DHT22;5865;48.776;9.280;2023-07-31T02:55:04;12.30;99.90
11619;DHT22;5865;48.776;9.280;2023-07-31T02:57:31;12.30;99.90
11619;DHT22;5865;48.776;9.280;2023-07-31T02:59:59;12.30;99.90
11619;DHT22;5865;48.776;9.280;2023-07-31T03:02:31;12.30;99.90
11619;DHT22;5865;48.776;9.280;2023-07-31T03:04:58;12.30;99.90
11619;DHT22;5865;48.776;9.280;2023-07-31T03:07:28;12.30;99.90
11619;DHT22;5865;48.776;9.280;2023-07-31T03:09:55;12.30;99.90
11619;DHT22;5865;48.776;9.280;2023-07-31T03:12:23;12.40;99.90
11619;DHT22;5865;48.776;9.280;2023-07-31T03:17:17;12.30;99.90
11619;DHT22;5865;48.776;9.280;2023-07-31T03:19:44;12.40;99.90
11619;DHT22;5865;48.776;9.280;2023-07-31T03:24:40;12.40;99.90
11619;DHT22;5865;48.776;9.280;2023-07-31T03:27:07;12.40;99.90
11619;DHT22;5865;48.776;9.280;2023-07-31T03:29:34;12.40;99.90
11619;DHT22;5865;48.776;9.280;2023-07-31T03:34:28;13.00;99.90
11619;DHT22;5865;48.776;9.280;2023-07-31T03:36:57;13.00;99.90
11619;DHT22;5865;48.776;9.280;2023-07-31T03:39:24;13.00;99.90
11619;DHT22;5865;48.776;9.280;2023-07-31T03:41:52;13.00;99.90
11619;DHT22;5865;48.776;9.280;2023-07-31T03:44:19;12.90;99.90
11619;DHT22;5865;48.776;9.280;2023-07-31T03:46:46;13.10;99.90
11619;DHT22;5865;48.776;9.280;2023-07-31T03:49:14;13.10;99.90
11619;DHT22;5865;48.776;9.280;2023-07-31T03:51:41;13.10;99.90
11619;DHT22;5865;48.776;9.280;2023-07-31T03:56:35;12.80;99.90
11619;DHT22;5865;48.776;9.280;2023-07-31T03:59:05;12.80;99.90
11619;DHT22;5865;48.776;9.280;2023-07-31T04:01:32;12.80;99.90
11619;DHT22;5865;48.776;9.280;2023-07-31T04:06:28;12.90;99.90
11619;DHT22;5865;48.776;9.280;2023-07-31T04:11:22;13.00;99.90
11619;DHT22;5865;48.776;9.280;2023-07-31T04:13:49;13.20;99.90
11619;DHT22;5865;48.776;9.280;2023-07-31T04:16:17;13.30;99.90
11619;DHT22;5865;48.776;9.280;2023-07-31T04:18:44;13.40;99.90
11619;DHT22;5865;48.776;9.280;2023-07-31T04:23:38;13.70;99.90
11619;DHT22;5865;48.776;9.280;2023-07-31T04:26:05;13.80;99.90
11619;DHT22;5865;48.776;9.280;2023-07-31T04:28:32;13.90;99.90
11619;DHT22;5865;48.776;9.280;2023-07-31T04:30:59;13.90;99.90
11619;DHT22;5865;48.776;9.280;2023-07-31T04:33:27;14.00;99.90
11619;DHT22;5865;48.776;9.280;2023-07-31T04:35:54;14.20;99.90
11619;DHT22;5865;48.776;9.280;2023-07-31T04:40:57;14.40;99.90
11619;DHT22;5865;48.776;9.280;2023-07-31T04:46:19;14.50;99.90
11619;DHT22;5865;48.776;9.280;2023-07-31T04:49:06;14.60;99.90
11619;DHT22;5865;48.776;9.280;2023-07-31T04:51:46;14.60;99.90
11619;DHT22;5865;48.776;9.280;2023-07-31T04:54:27;14.70;99.90
11619;DHT22;5865;48.776;9.280;2023-07-31T04:57:02;14.70;99.90
11619;DHT22;5865;48.776;9.280;2023-07-31T04:59:32;14.70;99.90
11619;DHT22;5865;48.776;9.280;2023-07-31T05:01:59;14.90;99.90
11619;DHT22;5865;48.776;9.280;2023-07-31T05:04:38;15.00;99.90
11619;DHT22;5865;48.776;9.280;2023-07-31T05:07:07;15.00;99.90
11619;DHT22;5865;48.776;9.280;2023-07-31T05:09:48;15.00;99.90
11619;DHT22;5865;48.776;9.280;2023-07-31T05:12:21;15.00;99.90
11619;DHT22;5865;48.776;9.280;2023-07-31T05:14:49;15.00;99.90
11619;DHT22;5865;48.776;9.280;2023-07-31T05:17:16;15.10;99.90
11619;DHT22;5865;48.776;9.280;2023-07-31T05:33:02;15.10;99.90
11619;DHT22;5865;48.776;9.280;2023-07-31T05:35:44;15.20;99.90
11619;DHT22;5865;48.776;9.280;2023-07-31T05:38:25;15.20;99.90
11619;DHT22;5865;48.776;9.280;2023-07-31T05:40:55;15.40;99.90
11619;DHT22;5865;48.776;9.280;2023-07-31T05:43:31;15.40;99.90
11619;DHT22;5865;48.776;9.280;2023-07-31T05:46:12;15.60;99.90
11619;DHT22;5865;48.776;9.280;2023-07-31T05:52:06;16.10;99.90
11619;DHT22;5865;48.776;9.280;2023-07-31T05:54:47;16.40;99.90
11619;DHT22;5865;48.776;9.280;2023-07-31T05:57:17;16.60;99.90
11619;DHT22;5865;48.776;9.280;2023-07-31T06:02:39;16.90;99.90
11619;DHT22;5865;48.776;9.280;2023-07-31T06:05:20;17.00;99.90
11619;DHT22;5865;48.776;9.280;2023-07-31T06:08:04;17.30;99.90
11619;DHT22;5865;48.776;9.280;2023-07-31T06:10:42;17.20;99.90
11619;DHT22;5865;48.776;9.280;2023-07-31T06:13:25;17.40;99.90
11619;DHT22;5865;48.776;9.280;2023-07-31T06:16:20;17.50;99.90
11619;DHT22;5865;48.776;9.280;2023-07-31T06:31:15;18.40;99.90
11619;DHT22;5865;48.776;9.280;2023-07-31T06:34:01;18.70;99.90
11619;DHT22;5865;48.776;9.280;2023-07-31T06:36:48;19.10;99.90
11619;DHT22;5865;48.776;9.280;2023-07-31T07:04:07;19.60;99.90
11619;DHT22;5865;48.776;9.280;2023-07-31T09:00:20;22.80;99.90
11619;DHT22;5865;48.776;9.280;2023-07-31T09:02:55;23.20;99.40
11619;DHT22;5865;48.776;9.280;2023-07-31T09:05:23;23.00;98.80
11619;DHT22;5865;48.776;9.280;2023-07-31T09:07:52;22.70;99.90
11619;DHT22;5865;48.776;9.280;2023-07-31T09:10:19;22.80;99.90
11619;DHT22;5865;48.776;9.280;2023-07-31T09:12:47;22.80;99.90
11619;DHT22;5865;48.776;9.280;2023-07-31T09:15:15;22.70;99.40
11619;DHT22;5865;48.776;9.280;2023-07-31T09:17:44;22.60;99.70
11619;DHT22;5865;48.776;9.280;2023-07-31T09:20:16;22.70;99.90
11619;DHT22;5865;48.776;9.280;2023-07-31T09:22:43;23.00;99.90
11619;DHT22;5865;48.776;9.280;2023-07-31T09:25:17;23.90;99.10
11619;DHT22;5865;48.776;9.280;2023-07-31T09:27:49;24.10;98.50
11619;DHT22;5865;48.776;9.280;2023-07-31T09:30:17;24.40;97.10
11619;DHT22;5865;48.776;9.280;2023-07-31T09:32:46;23.90;97.20
11619;DHT22;5865;48.776;9.280;2023-07-31T09:35:19;24.00;98.10
11619;DHT22;5865;48.776;9.280;2023-07-31T09:37:49;23.70;96.80
11619;DHT22;5865;48.776;9.280;2023-07-31T09:40:25;22.70;98.60
11619;DHT22;5865;48.776;9.280;2023-07-31T09:43:00;23.00;98.70
11619;DHT22;5865;48.776;9.280;2023-07-31T09:45:27;23.20;99.90
11619;DHT22;5865;48.776;9.280;2023-07-31T09:47:56;23.40;98.90
11619;DHT22;5865;48.776;9.280;2023-07-31T09:50:24;23.80;98.10
11619;DHT22;5865;48.776;9.280;2023-07-31T09:52:52;24.20;97.40
11619;DHT22;5865;48.776;9.280;2023-07-31T09:55:19;23.60;96.60
11619;DHT22;5865;48.776;9.280;2023-07-31T09:57:48;23.00;97.10
11619;DHT22;5865;48.776;9.280;2023-07-31T10:00:16;23.10;98.00
11619;DHT22;5865;48.776;9.280;2023-07-31T10:02:45;23.20;99.20
11619;DHT22;5865;48.776;9.280;2023-07-31T10:05:16;23.70;98.00
11619;DHT22;5865;48.776;9.280;2023-07-31T10:07:51;23.60;97.20
11619;DHT22;5865;48.776;9.280;2023-07-31T10:10:20;23.80;97.70
11619;DHT22;5865;48.776;9.280;2023-07-31T10:12:48;23.50;97.50
11619;DHT22;5865;48.776;9.280;2023-07-31T10:15:16;22.90;97.70
11619;DHT22;5865;48.776;9.280;2023-07-31T10:17:44;22.90;98.70
11619;DHT22;5865;48.776;9.280;2023-07-31T10:20:12;22.90;98.90
11619;DHT22;5865;48.776;9.280;2023-07-31T10:22:41;22.70;99.20
11619;DHT22;5865;48.776;9.280;2023-07-31T10:25:09;23.60;98.80
11619;DHT22;5865;48.776;9.280;2023-07-31T10:27:36;24.30;97.50
11619;DHT22;5865;48.776;9.280;2023-07-31T10:30:07;24.50;95.10
11619;DHT22;5865;48.776;9.280;2023-07-31T10:32:35;24.20;97.50
11619;DHT22;5865;48.776;9.280;2023-07-31T10:35:03;23.70;96.60
11619;DHT22;5865;48.776;9.280;2023-07-31T10:37:40;23.90;96.30
11619;DHT22;5865;48.776;9.280;2023-07-31T10:40:10;25.00;97.00
11619;DHT22;5865;48.776;9.280;2023-07-31T10:42:45;24.80;95.10
11619;DHT22;5865;48.776;9.280;2023-07-31T10:45:13;24.90;92.80
11619;DHT22;5865;48.776;9.280;2023-07-31T10:47:43;24.70;94.50
11619;DHT22;5865;48.776;9.280;2023-07-31T10:50:16;24.20;94.40
11619;DHT22;5865;48.776;9.280;2023-07-31T10:52:47;24.30;93.70
11619;DHT22;5865;48.776;9.280;2023-07-31T10:55:23;24.60;93.80
11619;DHT22;5865;48.776;9.280;2023-07-31T10:57:50;24.10;93.60
11619;DHT22;5865;48.776;9.280;2023-07-31T11:00:19;24.00;94.00
11619;DHT22;5865;48.776;9.280;2023-07-31T11:02:56;24.30;94.30
11619;DHT22;5865;48.776;9.280;2023-07-31T11:08:26;24.70;94.90
11619;DHT22;5865;48.776;9.280;2023-07-31T11:11:05;25.90;93.80
11619;DHT22;5865;48.776;9.280;2023-07-31T11:13:33;26.40;90.00
11619;DHT22;5865;48.776;9.280;2023-07-31T11:16:00;26.20;90.50
11619;DHT22;5865;48.776;9.280;2023-07-31T11:18:27;25.80;90.70
11619;DHT22;5865;48.776;9.280;2023-07-31T11:20:54;25.10;91.50
11619;DHT22;5865;48.776;9.280;2023-07-31T11:23:23;24.70;91.80
11619;DHT22;5865;48.776;9.280;2023-07-31T11:25:50;24.70;92.80
11619;DHT22;5865;48.776;9.280;2023-07-31T11:28:19;24.00;92.10
11619;DHT22;5865;48.776;9.280;2023-07-31T11:30:46;24.40;93.10
11619;DHT22;5865;48.776;9.280;2023-07-31T11:35:43;23.90;92.70
11619;DHT22;5865;48.776;9.280;2023-07-31T11:38:11;24.10;92.50
11619;DHT22;5865;48.776;9.280;2023-07-31T11:40:43;23.50;92.40
11619;DHT22;5865;48.776;9.280;2023-07-31T11:43:10;23.20;92.90
11619;DHT22;5865;48.776;9.280;2023-07-31T11:45:42;23.30;94.00
11619;DHT22;5865;48.776;9.280;2023-07-31T11:48:18;23.60;94.80
11619;DHT22;5865;48.776;9.280;2023-07-31T11:50:45;23.50;93.30
11619;DHT22;5865;48.776;9.280;2023-07-31T11:53:15;24.10;94.70
11619;DHT22;5865;48.776;9.280;2023-07-31T11:55:44;24.10;95.10
11619;DHT22;5865;48.776;9.280;2023-07-31T11:58:13;24.20;92.60
11619;DHT22;5865;48.776;9.280;2023-07-31T12:00:42;23.70;93.20
11619;DHT22;5865;48.776;9.280;2023-07-31T12:03:09;23.80;93.40
11619;DHT22;5865;48.776;9.280;2023-07-31T12:05:37;24.10;92.80
11619;DHT22;5865;48.776;9.280;2023-07-31T12:08:09;24.10;92.80
11619;DHT22;5865;48.776;9.280;2023-07-31T12:10:37;24.60;93.00
11619;DHT22;5865;48.776;9.280;2023-07-31T12:13:09;25.30;92.80
11619;DHT22;5865;48.776;9.280;2023-07-31T12:15:40;25.20;92.30
11619;DHT22;5865;48.776;9.280;2023-07-31T12:18:09;24.80;92.00
11619;DHT22;5865;48.776;9.280;2023-07-31T12:20:41;25.00;93.80
11619;DHT22;5865;48.776;9.280;2023-07-31T12:23:13;24.60;91.50
11619;DHT22;5865;48.776;9.280;2023-07-31T12:25:41;24.00;92.30
11619;DHT22;5865;48.776;9.280;2023-07-31T12:28:09;24.00;93.80
11619;DHT22;5865;48.776;9.280;2023-07-31T12:30:39;23.70;93.70
11619;DHT22;5865;48.776;9.280;2023-07-31T12:33:12;23.50;94.40
11619;DHT22;5865;48.776;9.280;2023-07-31T12:35:43;23.40;94.00
11619;DHT22;5865;48.776;9.280;2023-07-31T12:38:10;23.30;97.00
11619;DHT22;5865;48.776;9.280;2023-07-31T12:40:39;23.50;95.20
11619;DHT22;5865;48.776;9.280;2023-07-31T12:43:06;23.70;94.60
11619;DHT22;5865;48.776;9.280;2023-07-31T12:48:13;23.60;95.80
11619;DHT22;5865;48.776;9.280;2023-07-31T12:50:40;23.20;95.30
11619;DHT22;5865;48.776;9.280;2023-07-31T12:53:07;23.20;95.70
11619;DHT22;5865;48.776;9.280;2023-07-31T12:55:34;23.40;96.40
11619;DHT22;5865;48.776;9.280;2023-07-31T12:58:02;23.70;96.10
11619;DHT22;5865;48.776;9.280;2023-07-31T13:00:29;23.50;95.00
11619;DHT22;5865;48.776;9.280;2023-07-31T13:02:58;23.60;95.90
11619;DHT22;5865;48.776;9.280;2023-07-31T13:05:25;23.40;95.30
11619;DHT22;5865;48.776;9.280;2023-07-31T13:07:52;23.40;95.70
11619;DHT22;5865;48.776;9.280;2023-07-31T13:10:20;23.40;95.50
11619;DHT22;5865;48.776;9.280;2023-07-31T13:12:47;23.60;96.10
11619;DHT22;5865;48.776;9.280;2023-07-31T13:15:14;23.40;95.70
11619;DHT22;5865;48.776;9.280;2023-07-31T13:17:42;23.20;95.70
11619;DHT22;5865;48.776;9.280;2023-07-31T13:20:11;23.40;95.70
11619;DHT22;5865;48.776;9.280;2023-07-31T13:22:38;23.40;95.50
11619;DHT22;5865;48.776;9.280;2023-07-31T13:25:06;23.50;96.60
11619;DHT22;5865;48.776;9.280;2023-07-31T13:27:33;23.80;95.60
11619;DHT22;5865;48.776;9.280;2023-07-31T13:30:01;24.10;96.00
11619;DHT22;5865;48.776;9.280;2023-07-31T13:32:27;24.50;94.90
11619;DHT22;5865;48.776;9.280;2023-07-31T13:34:55;25.40;93.70
11619;DHT22;5865;48.776;9.280;2023-07-31T13:37:23;26.30;93.70
11619;DHT22;5865;48.776;9.280;2023-07-31T13:39:50;28.10;88.60
11619;DHT22;5865;48.776;9.280;2023-07-31T13:42:17;29.20;81.50
11619;DHT22;5865;48.776;9.280;2023-07-31T13:44:53;29.50;77.00
11619;DHT22;5865;48.776;9.280;2023-07-31T13:47:41;29.80;76.60
11619;DHT22;5865;48.776;9.280;2023-07-31T13:50:09;28.80;77.20
11619;DHT22;5865;48.776;9.280;2023-07-31T13:55:05;30.30;75.40
11619;DHT22;5865;48.776;9.280;2023-07-31T13:57:32;30.30;74.00
11619;DHT22;5865;48.776;9.280;2023-07-31T13:59:59;29.70;73.20
11619;DHT22;5865;48.776;9.280;2023-07-31T14:02:26;28.40;75.20
11619;DHT22;5865;48.776;9.280;2023-07-31T14:04:53;27.70;77.30
11619;DHT22;5865;48.776;9.280;2023-07-31T14:07:20;26.80;80.00
11619;DHT22;5865;48.776;9.280;2023-07-31T14:09:48;26.80;81.30
11619;DHT22;5865;48.776;9.280;2023-07-31T14:12:15;26.90;82.40
11619;DHT22;5865;48.776;9.280;2023-07-31T14:14:42;26.20;81.10
11619;DHT22;5865;48.776;9.280;2023-07-31T14:17:09;25.90;83.70
11619;DHT22;5865;48.776;9.280;2023-07-31T14:19:36;25.40;87.70
11619;DHT22;5865;48.776;9.280;2023-07-31T14:22:04;25.40;87.50
11619;DHT22;5865;48.776;9.280;2023-07-31T14:24:31;25.60;87.40
11619;DHT22;5865;48.776;9.280;2023-07-31T14:26:59;25.50;88.60
11619;DHT22;5865;48.776;9.280;2023-07-31T14:29:26;25.00;88.60
11619;DHT22;5865;48.776;9.280;2023-07-31T14:31:53;25.00;89.30
11619;DHT22;5865;48.776;9.280;2023-07-31T14:34:21;25.10;90.20
11619;DHT22;5865;48.776;9.280;2023-07-31T14:36:48;25.30;91.00
11619;DHT22;5865;48.776;9.280;2023-07-31T14:39:15;25.60;90.20
11619;DHT22;5865;48.776;9.280;2023-07-31T14:41:42;25.60;89.40
11619;DHT22;5865;48.776;9.280;2023-07-31T14:44:10;25.30;87.70
11619;DHT22;5865;48.776;9.280;2023-07-31T14:46:37;25.20;88.40
11619;DHT22;5865;48.776;9.280;2023-07-31T14:49:04;25.50;90.00
11619;DHT22;5865;48.776;9.280;2023-07-31T14:53:58;26.00;88.40
11619;DHT22;5865;48.776;9.280;2023-07-31T14:56:25;26.00;89.80
11619;DHT22;5865;48.776;9.280;2023-07-31T14:58:53;26.70;87.40
11619;DHT22;5865;48.776;9.280;2023-07-31T15:01:22;27.30;89.20
11619;DHT22;5865;48.776;9.280;2023-07-31T15:03:48;28.20;83.20
11619;DHT22;5865;48.776;9.280;2023-07-31T15:06:15;28.40;84.20
11619;DHT22;5865;48.776;9.280;2023-07-31T15:08:43;27.60;83.30
11619;DHT22;5865;48.776;9.280;2023-07-31T15:11:10;27.30;82.40
11619;DHT22;5865;48.776;9.280;2023-07-31T15:13:37;28.50;78.50
11619;DHT22;5865;48.776;9.280;2023-07-31T15:16:04;28.80;78.70
11619;DHT22;5865;48.776;9.280;2023-07-31T15:18:32;29.60;73.60
11619;DHT22;5865;48.776;9.280;2023-07-31T15:20:59;28.80;72.40
11619;DHT22;5865;48.776;9.280;2023-07-31T15:23:26;27.50;76.50
11619;DHT22;5865;48.776;9.280;2023-07-31T15:25:53;27.50;77.30
11619;DHT22;5865;48.776;9.280;2023-07-31T15:28:20;27.10;78.70
11619;DHT22;5865;48.776;9.280;2023-07-31T15:30:47;28.00;78.50
11619;DHT22;5865;48.776;9.280;2023-07-31T15:35:43;27.80;75.30
11619;DHT22;5865;48.776;9.280;2023-07-31T15:38:10;27.80;74.80
11619;DHT22;5865;48.776;9.280;2023-07-31T15:40:38;28.90;72.80
11619;DHT22;5865;48.776;9.280;2023-07-31T15:43:05;29.00;73.40
11619;DHT22;5865;48.776;9.280;2023-07-31T15:45:32;29.80;70.60
11619;DHT22;5865;48.776;9.280;2023-07-31T15:47:59;30.40;68.80
11619;DHT22;5865;48.776;9.280;2023-07-31T15:50:26;28.40;68.60
11619;DHT22;5865;48.776;9.280;2023-07-31T15:55:22;29.90;67.40
11619;DHT22;5865;48.776;9.280;2023-07-31T16:00:18;29.00;70.90
11619;DHT22;5865;48.776;9.280;2023-07-31T16:02:45;29.00;70.80
11619;DHT22;5865;48.776;9.280;2023-07-31T16:05:12;27.60;70.90
11619;DHT22;5865;48.776;9.280;2023-07-31T16:07:39;28.00;72.60
11619;DHT22;5865;48.776;9.280;2023-07-31T16:10:09;28.10;72.70
11619;DHT22;5865;48.776;9.280;2023-07-31T16:12:36;27.30;74.20
11619;DHT22;5865;48.776;9.280;2023-07-31T16:15:07;27.80;73.80
11619;DHT22;5865;48.776;9.280;2023-07-31T16:17:34;28.00;74.80
11619;DHT22;5865;48.776;9.280;2023-07-31T16:20:01;27.80;75.10
11619;DHT22;5865;48.776;9.280;2023-07-31T16:22:29;27.10;75.20
11619;DHT22;5865;48.776;9.280;2023-07-31T16:24:56;27.00;74.60
11619;DHT22;5865;48.776;9.280;2023-07-31T16:27:24;27.00;76.50
11619;DHT22;5865;48.776;9.280;2023-07-31T16:29:51;26.30;76.70
11619;DHT22;5865;48.776;9.280;2023-07-31T16:32:19;26.20;79.80
11619;DHT22;5865;48.776;9.280;2023-07-31T16:34:46;25.40;79.20
11619;DHT22;5865;48.776;9.280;2023-07-31T16:37:13;25.40;82.80
11619;DHT22;5865;48.776;9.280;2023-07-31T16:39:40;25.70;82.70
11619;DHT22;5865;48.776;9.280;2023-07-31T16:42:11;25.50;80.90
11619;DHT22;5865;48.776;9.280;2023-07-31T16:44:39;25.40;80.70
11619;DHT22;5865;48.776;9.280;2023-07-31T16:47:06;25.60;82.50
11619;DHT22;5865;48.776;9.280;2023-07-31T16:49:33;25.10;81.90
11619;DHT22;5865;48.776;9.280;2023-07-31T16:52:00;25.00;82.50
11619;DHT22;5865;48.776;9.280;2023-07-31T16:54:27;24.40;83.70
11619;DHT22;5865;48.776;9.280;2023-07-31T16:56:54;24.50;86.80
11619;DHT22;5865;48.776;9.280;2023-07-31T16:59:20;24.20;87.30
11619;DHT22;5865;48.776;9.280;2023-07-31T17:01:49;23.80;87.90
11619;DHT22;5865;48.776;9.280;2023-07-31T17:06:43;23.50;90.10
11619;DHT22;5865;48.776;9.280;2023-07-31T17:09:10;23.30;90.20
11619;DHT22;5865;48.776;9.280;2023-07-31T17:11:37;23.50;90.40
11619;DHT22;5865;48.776;9.280;2023-07-31T17:14:04;23.40;90.40
11619;DHT22;5865;48.776;9.280;2023-07-31T17:16:32;23.40;90.90
11619;DHT22;5865;48.776;9.280;2023-07-31T17:19:02;23.20;91.30
11619;DHT22;5865;48.776;9.280;2023-07-31T17:21:29;23.00;91.60
11619;DHT22;5865;48.776;9.280;2023-07-31T17:23:56;22.70;92.40
11619;DHT22;5865;48.776;9.280;2023-07-31T17:26:25;22.70;93.00
11619;DHT22;5865;48.776;9.280;2023-07-31T17:28:53;22.60;93.40
11619;DHT22;5865;48.776;9.280;2023-07-31T17:31:20;22.50;94.20
11619;DHT22;5865;48.776;9.280;2023-07-31T17:33:47;22.40;94.60
11619;DHT22;5865;48.776;9.280;2023-07-31T17:36:15;22.40;95.20
11619;DHT22;5865;48.776;9.280;2023-07-31T17:38:42;22.50;95.60
11619;DHT22;5865;48.776;9.280;2023-07-31T17:41:09;22.40;95.50
11619;DHT22;5865;48.776;9.280;2023-07-31T17:43:36;22.30;95.50
11619;DHT22;5865;48.776;9.280;2023-07-31T17:46:03;22.30;95.70
11619;DHT22;5865;48.776;9.280;2023-07-31T17:48:31;22.30;95.80
11619;DHT22;5865;48.776;9.280;2023-07-31T17:50:58;22.20;96.30
11619;DHT22;5865;48.776;9.280;2023-07-31T17:53:26;22.10;96.70
11619;DHT22;5865;48.776;9.280;2023-07-31T17:55:53;22.10;97.40
11619;DHT22;5865;48.776;9.280;2023-07-31T17:58:20;22.10;97.70
11619;DHT22;5865;48.776;9.280;2023-07-31T18:00:47;22.00;98.00
11619;DHT22;5865;48.776;9.280;2023-07-31T18:05:41;21.80;98.40
11619;DHT22;5865;48.776;9.280;2023-07-31T18:08:08;21.70;99.60
11619;DHT22;5865;48.776;9.280;2023-07-31T18:10:43;21.70;99.90
11619;DHT22;5865;48.776;9.280;2023-07-31T18:13:10;21.60;99.90
11619;DHT22;5865;48.776;9.280;2023-07-31T18:15:37;21.60;99.90
11619;DHT22;5865;48.776;9.280;2023-07-31T18:18:05;21.50;99.90
11619;DHT22;5865;48.776;9.280;2023-07-31T18:20:32;21.50;99.90
11619;DHT22;5865;48.776;9.280;2023-07-31T18:23:01;21.40;99.90
11619;DHT22;5865;48.776;9.280;2023-07-31T18:25:28;21.30;99.90
11619;DHT22;5865;48.776;9.280;2023-07-31T18:27:57;21.30;99.90
11619;DHT22;5865;48.776;9.280;2023-07-31T18:30:24;21.30;99.90
11619;DHT22;5865;48.776;9.280;2023-07-31T18:44:03;20.70;99.90
11619;DHT22;5865;48.776;9.280;2023-07-31T20:54:56;16.80;99.90
11619;DHT22;5865;48.776;9.280;2023-07-31T21:17:32;16.70;99.90
11619;DHT22;5865;48.776;9.280;2023-07-31T21:20:01;16.70;99.90
11619;DHT22;5865;48.776;9.280;2023-07-31T21:22:29;16.80;99.90
11619;DHT22;5865;48.776;9.280;2023-07-31T21:27:23;16.90;99.90
11619;DHT22;5865;48.776;9.280;2023-07-31T21:29:51;16.80;99.90
11619;DHT22;5865;48.776;9.280;2023-07-31T21:32:19;16.80;99.90
11619;DHT22;5865;48.776;9.280;2023-07-31T21:34:48;16.80;99.90
11619;DHT22;5865;48.776;9.280;2023-07-31T21:37:15;16.90;99.90
11619;DHT22;5865;48.776;9.280;2023-07-31T21:39:41;16.80;99.90
11619;DHT22;5865;48.776;9.280;2023-07-31T21:42:08;16.80;99.90
11619;DHT22;5865;48.776;9.280;2023-07-31T21:44:35;16.80;99.90
11619;DHT22;5865;48.776;9.280;2023-07-31T21:47:02;16.80;99.90
11619;DHT22;5865;48.776;9.280;2023-07-31T21:49:29;16.90;99.90
11619;DHT22;5865;48.776;9.280;2023-07-31T21:51:58;16.80;99.90
11619;DHT22;5865;48.776;9.280;2023-07-31T21:54:24;16.80;99.90
11619;DHT22;5865;48.776;9.280;2023-07-31T21:56:51;16.80;99.90
11619;DHT22;5865;48.776;9.280;2023-07-31T21:59:18;16.80;99.90
11619;DHT22;5865;48.776;9.280;2023-07-31T22:04:12;16.70;99.90
11619;DHT22;5865;48.776;9.280;2023-07-31T22:06:39;16.80;99.90
11619;DHT22;5865;48.776;9.280;2023-07-31T22:09:07;16.80;99.90
11619;DHT22;5865;48.776;9.280;2023-07-31T22:11:34;16.70;99.90
11619;DHT22;5865;48.776;9.280;2023-07-31T22:14:01;16.80;99.90
11619;DHT22;5865;48.776;9.280;2023-07-31T22:16:28;16.80;99.90
11619;DHT22;5865;48.776;9.280;2023-07-31T22:18:55;16.70;99.90
11619;DHT22;5865;48.776;9.280;2023-07-31T22:21:22;16.80;99.90
11619;DHT22;5865;48.776;9.280;2023-07-31T22:23:48;16.80;99.90
11619;DHT22;5865;48.776;9.280;2023-07-31T22:26:17;16.80;99.90
11619;DHT22;5865;48.776;9.280;2023-07-31T22:28:43;16.80;99.90
11619;DHT22;5865;48.776;9.280;2023-07-31T22:31:11;16.80;99.90
11619;DHT22;5865;48.776;9.280;2023-07-31T22:36:05;16.80;99.90